sensor_id;sensor_type;location;lat;lon;timestamp;P1;durP1;ratioP1;P2;durP2;ratioP2
71490;SDS011;59307;50.060;9.150;2022-10-16T00:00:15;4.90;;;2.60;;
71490;SDS011;59307;50.060;9.150;2022-10-16T00:02:40;5.60;;;2.73;;
71490;SDS011;59307;50.060;9.150;2022-10-16T00:05:05;4.60;;;3.20;;
71490;SDS011;59307;50.060;9.150;2022-10-16T00:07:30;6.27;;;2.80;;
71490;SDS011;59307;50.060;9.150;2022-10-16T00:09:56;10.10;;;3.00;;
71490;SDS011;59307;50.060;9.150;2022-10-16T00:12:21;6.27;;;2.50;;
71490;SDS011;59307;50.060;9.150;2022-10-16T00:14:46;6.63;;;2.73;;
71490;SDS011;59307;50.060;9.150;2022-10-16T00:17:11;4.00;;;2.80;;
71490;SDS011;59307;50.060;9.150;2022-10-16T00:19:36;4.77;;;2.83;;
71490;SDS011;59307;50.060;9.150;2022-10-16T00:22:02;5.70;;;3.50;;
71490;SDS011;59307;50.060;9.150;2022-10-16T00:24:28;3.87;;;2.73;;
71490;SDS011;59307;50.060;9.150;2022-10-16T00:26:53;4.20;;;2.45;;
71490;SDS011;59307;50.060;9.150;2022-10-16T00:29:18;5.70;;;2.93;;
71490;SDS011;59307;50.060;9.150;2022-10-16T00:31:43;5.07;;;2.80;;
71490;SDS011;59307;50.060;9.150;2022-10-16T00:34:09;3.83;;;2.60;;
71490;SDS011;59307;50.060;9.150;2022-10-16T00:36:34;3.63;;;2.50;;
71490;SDS011;59307;50.060;9.150;2022-10-16T00:38:59;3.90;;;2.60;;
71490;SDS011;59307;50.060;9.150;2022-10-16T00:41:25;3.63;;;2.50;;
71490;SDS011;59307;50.060;9.150;2022-10-16T00:49:19;5.47;;;2.63;;
71490;SDS011;59307;50.060;9.150;2022-10-16T00:51:54;4.78;;;2.58;;
71490;SDS011;59307;50.060;9.150;2022-10-16T00:56:45;4.60;;;2.13;;
71490;SDS011;59307;50.060;9.150;2022-10-16T00:59:24;3.53;;;2.13;;
71490;SDS011;59307;50.060;9.150;2022-10-16T01:01:50;5.93;;;2.63;;
71490;SDS011;59307;50.060;9.150;2022-10-16T01:04:15;4.80;;;2.70;;
71490;SDS011;59307;50.060;9.150;2022-10-16T01:06:47;5.40;;;2.17;;
71490;SDS011;59307;50.060;9.150;2022-10-16T01:14:18;6.82;;;2.80;;
71490;SDS011;59307;50.060;9.150;2022-10-16T01:16:48;4.68;;;2.78;;
71490;SDS011;59307;50.060;9.150;2022-10-16T01:19:20;6.22;;;2.90;;
71490;SDS011;59307;50.060;9.150;2022-10-16T01:21:48;3.33;;;2.40;;
71490;SDS011;59307;50.060;9.150;2022-10-16T01:27:00;3.75;;;2.35;;
71490;SDS011;59307;50.060;9.150;2022-10-16T01:31:59;4.30;;;2.35;;
71490;SDS011;59307;50.060;9.150;2022-10-16T01:34:32;3.53;;;2.30;;
71490;SDS011;59307;50.060;9.150;2022-10-16T01:37:00;4.43;;;2.50;;
71490;SDS011;59307;50.060;9.150;2022-10-16T01:39:28;13.43;;;3.45;;
71490;SDS011;59307;50.060;9.150;2022-10-16T01:41:58;3.95;;;2.28;;
71490;SDS011;59307;50.060;9.150;2022-10-16T01:44:28;3.22;;;1.90;;
71490;SDS011;59307;50.060;9.150;2022-10-16T01:46:54;2.50;;;1.80;;
71490;SDS011;59307;50.060;9.150;2022-10-16T01:49:20;5.40;;;2.03;;
71490;SDS011;59307;50.060;9.150;2022-10-16T01:51:47;3.90;;;1.90;;
71490;SDS011;59307;50.060;9.150;2022-10-16T01:54:13;2.17;;;1.50;;
71490;SDS011;59307;50.060;9.150;2022-10-16T01:56:39;4.00;;;2.27;;
71490;SDS011;59307;50.060;9.150;2022-10-16T01:59:05;3.30;;;1.63;;
71490;SDS011;59307;50.060;9.150;2022-10-16T02:01:32;3.60;;;2.10;;
71490;SDS011;59307;50.060;9.150;2022-10-16T02:03:59;2.80;;;2.00;;
71490;SDS011;59307;50.060;9.150;2022-10-16T02:06:26;3.85;;;1.67;;
71490;SDS011;59307;50.060;9.150;2022-10-16T02:08:52;2.47;;;1.80;;
71490;SDS011;59307;50.060;9.150;2022-10-16T02:11:18;2.50;;;2.05;;
71490;SDS011;59307;50.060;9.150;2022-10-16T02:13:46;2.50;;;1.60;;
71490;SDS011;59307;50.060;9.150;2022-10-16T02:16:13;2.42;;;1.85;;
71490;SDS011;59307;50.060;9.150;2022-10-16T02:18:39;5.03;;;2.10;;
71490;SDS011;59307;50.060;9.150;2022-10-16T02:21:23;6.00;;;2.40;;
71490;SDS011;59307;50.060;9.150;2022-10-16T02:26:27;3.85;;;1.80;;
71490;SDS011;59307;50.060;9.150;2022-10-16T02:28:54;5.13;;;2.07;;
71490;SDS011;59307;50.060;9.150;2022-10-16T02:31:23;2.85;;;1.73;;
71490;SDS011;59307;50.060;9.150;2022-10-16T02:33:50;5.05;;;1.75;;
71490;SDS011;59307;50.060;9.150;2022-10-16T02:36:16;4.38;;;1.67;;
71490;SDS011;59307;50.060;9.150;2022-10-16T02:38:41;4.87;;;1.60;;
71490;SDS011;59307;50.060;9.150;2022-10-16T02:41:06;3.37;;;1.50;;
71490;SDS011;59307;50.060;9.150;2022-10-16T02:43:32;3.20;;;1.60;;
71490;SDS011;59307;50.060;9.150;2022-10-16T02:45:58;4.20;;;1.40;;
71490;SDS011;59307;50.060;9.150;2022-10-16T02:48:24;1.87;;;1.30;;
71490;SDS011;59307;50.060;9.150;2022-10-16T02:50:49;2.23;;;1.40;;
71490;SDS011;59307;50.060;9.150;2022-10-16T02:53:14;2.23;;;1.30;;
71490;SDS011;59307;50.060;9.150;2022-10-16T02:55:39;2.97;;;1.30;;
71490;SDS011;59307;50.060;9.150;2022-10-16T02:58:05;3.10;;;1.20;;
71490;SDS011;59307;50.060;9.150;2022-10-16T03:00:30;2.00;;;1.33;;
71490;SDS011;59307;50.060;9.150;2022-10-16T03:02:55;1.73;;;1.00;;
71490;SDS011;59307;50.060;9.150;2022-10-16T03:05:20;1.63;;;1.03;;
71490;SDS011;59307;50.060;9.150;2022-10-16T03:07:45;2.60;;;1.30;;
71490;SDS011;59307;50.060;9.150;2022-10-16T03:10:11;1.77;;;1.10;;
71490;SDS011;59307;50.060;9.150;2022-10-16T03:12:36;2.13;;;1.20;;
71490;SDS011;59307;50.060;9.150;2022-10-16T03:15:01;2.57;;;1.30;;
71490;SDS011;59307;50.060;9.150;2022-10-16T03:17:26;3.40;;;1.47;;
71490;SDS011;59307;50.060;9.150;2022-10-16T03:19:51;4.10;;;1.50;;
71490;SDS011;59307;50.060;9.150;2022-10-16T03:22:17;2.13;;;1.50;;
71490;SDS011;59307;50.060;9.150;2022-10-16T03:24:42;4.07;;;1.53;;
71490;SDS011;59307;50.060;9.150;2022-10-16T03:27:07;3.63;;;1.80;;
71490;SDS011;59307;50.060;9.150;2022-10-16T03:29:32;2.90;;;1.50;;
71490;SDS011;59307;50.060;9.150;2022-10-16T03:31:57;2.13;;;1.40;;
71490;SDS011;59307;50.060;9.150;2022-10-16T03:34:23;2.47;;;1.50;;
71490;SDS011;59307;50.060;9.150;2022-10-16T03:36:49;3.25;;;1.60;;
71490;SDS011;59307;50.060;9.150;2022-10-16T03:39:14;4.70;;;1.60;;
71490;SDS011;59307;50.060;9.150;2022-10-16T03:41:39;3.23;;;1.97;;
71490;SDS011;59307;50.060;9.150;2022-10-16T03:44:04;3.90;;;1.77;;
71490;SDS011;59307;50.060;9.150;2022-10-16T03:46:30;5.00;;;2.17;;
71490;SDS011;59307;50.060;9.150;2022-10-16T03:48:55;8.90;;;2.70;;
71490;SDS011;59307;50.060;9.150;2022-10-16T03:51:20;5.30;;;2.50;;
71490;SDS011;59307;50.060;9.150;2022-10-16T03:53:45;4.07;;;2.50;;
71490;SDS011;59307;50.060;9.150;2022-10-16T03:56:10;3.93;;;2.50;;
71490;SDS011;59307;50.060;9.150;2022-10-16T03:58:36;7.80;;;2.47;;
71490;SDS011;59307;50.060;9.150;2022-10-16T04:01:01;4.60;;;3.10;;
71490;SDS011;59307;50.060;9.150;2022-10-16T04:03:26;5.47;;;3.20;;
71490;SDS011;59307;50.060;9.150;2022-10-16T04:05:51;4.63;;;2.80;;
71490;SDS011;59307;50.060;9.150;2022-10-16T04:08:17;7.60;;;3.30;;
71490;SDS011;59307;50.060;9.150;2022-10-16T04:10:43;5.87;;;3.40;;
71490;SDS011;59307;50.060;9.150;2022-10-16T04:13:08;9.75;;;4.30;;
71490;SDS011;59307;50.060;9.150;2022-10-16T04:15:34;10.80;;;4.67;;
71490;SDS011;59307;50.060;9.150;2022-10-16T04:17:59;7.70;;;4.60;;
71490;SDS011;59307;50.060;9.150;2022-10-16T04:20:24;6.87;;;4.50;;
71490;SDS011;59307;50.060;9.150;2022-10-16T04:22:49;7.33;;;4.97;;
71490;SDS011;59307;50.060;9.150;2022-10-16T04:25:14;8.90;;;4.67;;
71490;SDS011;59307;50.060;9.150;2022-10-16T04:27:40;8.30;;;4.53;;
71490;SDS011;59307;50.060;9.150;2022-10-16T04:30:05;7.97;;;5.07;;
71490;SDS011;59307;50.060;9.150;2022-10-16T04:32:30;7.13;;;4.63;;
71490;SDS011;59307;50.060;9.150;2022-10-16T04:34:56;6.13;;;3.90;;
71490;SDS011;59307;50.060;9.150;2022-10-16T04:37:24;9.20;;;4.50;;
71490;SDS011;59307;50.060;9.150;2022-10-16T04:39:50;7.85;;;4.45;;
71490;SDS011;59307;50.060;9.150;2022-10-16T04:42:15;7.27;;;4.60;;
71490;SDS011;59307;50.060;9.150;2022-10-16T04:44:40;7.00;;;3.93;;
71490;SDS011;59307;50.060;9.150;2022-10-16T04:47:06;6.03;;;3.73;;
71490;SDS011;59307;50.060;9.150;2022-10-16T04:49:31;8.83;;;4.07;;
71490;SDS011;59307;50.060;9.150;2022-10-16T04:51:56;7.43;;;3.73;;
71490;SDS011;59307;50.060;9.150;2022-10-16T04:54:21;10.38;;;4.10;;
71490;SDS011;59307;50.060;9.150;2022-10-16T04:56:47;7.37;;;4.37;;
71490;SDS011;59307;50.060;9.150;2022-10-16T04:59:16;10.57;;;4.20;;
71490;SDS011;59307;50.060;9.150;2022-10-16T05:01:41;9.52;;;4.38;;
71490;SDS011;59307;50.060;9.150;2022-10-16T05:04:06;7.13;;;4.30;;
71490;SDS011;59307;50.060;9.150;2022-10-16T05:06:32;6.33;;;4.00;;
71490;SDS011;59307;50.060;9.150;2022-10-16T05:08:57;5.78;;;3.75;;
71490;SDS011;59307;50.060;9.150;2022-10-16T05:11:22;9.73;;;4.70;;
71490;SDS011;59307;50.060;9.150;2022-10-16T05:13:47;9.53;;;4.67;;
71490;SDS011;59307;50.060;9.150;2022-10-16T05:16:13;9.03;;;4.43;;
71490;SDS011;59307;50.060;9.150;2022-10-16T05:18:38;6.93;;;4.07;;
71490;SDS011;59307;50.060;9.150;2022-10-16T05:21:03;7.67;;;4.33;;
71490;SDS011;59307;50.060;9.150;2022-10-16T05:23:28;8.53;;;4.60;;
71490;SDS011;59307;50.060;9.150;2022-10-16T05:25:56;6.37;;;4.23;;
71490;SDS011;59307;50.060;9.150;2022-10-16T05:28:23;6.68;;;4.13;;
71490;SDS011;59307;50.060;9.150;2022-10-16T05:30:48;5.60;;;3.10;;
71490;SDS011;59307;50.060;9.150;2022-10-16T05:33:13;7.17;;;3.30;;
71490;SDS011;59307;50.060;9.150;2022-10-16T05:35:38;6.30;;;3.43;;
71490;SDS011;59307;50.060;9.150;2022-10-16T05:38:04;7.40;;;4.27;;
71490;SDS011;59307;50.060;9.150;2022-10-16T05:40:29;6.63;;;3.50;;
71490;SDS011;59307;50.060;9.150;2022-10-16T05:42:54;5.40;;;3.50;;
71490;SDS011;59307;50.060;9.150;2022-10-16T05:45:20;7.03;;;3.53;;
71490;SDS011;59307;50.060;9.150;2022-10-16T05:47:45;7.10;;;4.73;;
71490;SDS011;59307;50.060;9.150;2022-10-16T05:50:10;9.40;;;4.20;;
71490;SDS011;59307;50.060;9.150;2022-10-16T05:52:35;9.50;;;3.60;;
71490;SDS011;59307;50.060;9.150;2022-10-16T05:55:00;5.30;;;3.37;;
71490;SDS011;59307;50.060;9.150;2022-10-16T05:57:26;6.13;;;3.07;;
71490;SDS011;59307;50.060;9.150;2022-10-16T05:59:51;4.37;;;2.47;;
71490;SDS011;59307;50.060;9.150;2022-10-16T06:02:16;6.60;;;3.30;;
71490;SDS011;59307;50.060;9.150;2022-10-16T06:04:41;5.37;;;3.13;;
71490;SDS011;59307;50.060;9.150;2022-10-16T06:07:07;4.00;;;2.80;;
71490;SDS011;59307;50.060;9.150;2022-10-16T06:09:32;7.93;;;3.10;;
71490;SDS011;59307;50.060;9.150;2022-10-16T06:11:57;7.70;;;3.47;;
71490;SDS011;59307;50.060;9.150;2022-10-16T06:14:23;10.73;;;3.60;;
71490;SDS011;59307;50.060;9.150;2022-10-16T06:16:48;5.07;;;2.57;;
71490;SDS011;59307;50.060;9.150;2022-10-16T06:19:13;6.73;;;3.30;;
71490;SDS011;59307;50.060;9.150;2022-10-16T06:21:39;6.87;;;3.30;;
71490;SDS011;59307;50.060;9.150;2022-10-16T06:24:04;4.13;;;2.80;;
71490;SDS011;59307;50.060;9.150;2022-10-16T06:26:30;6.20;;;3.07;;
71490;SDS011;59307;50.060;9.150;2022-10-16T06:28:55;5.65;;;2.80;;
71490;SDS011;59307;50.060;9.150;2022-10-16T06:31:21;4.38;;;2.50;;
71490;SDS011;59307;50.060;9.150;2022-10-16T06:33:49;7.90;;;2.53;;
71490;SDS011;59307;50.060;9.150;2022-10-16T06:36:15;4.33;;;2.50;;
71490;SDS011;59307;50.060;9.150;2022-10-16T06:38:42;4.43;;;2.50;;
71490;SDS011;59307;50.060;9.150;2022-10-16T06:41:07;4.30;;;2.55;;
71490;SDS011;59307;50.060;9.150;2022-10-16T06:43:34;6.60;;;3.40;;
71490;SDS011;59307;50.060;9.150;2022-10-16T06:46:00;9.03;;;5.00;;
71490;SDS011;59307;50.060;9.150;2022-10-16T06:48:26;8.75;;;3.55;;
71490;SDS011;59307;50.060;9.150;2022-10-16T06:50:55;7.60;;;4.47;;
71490;SDS011;59307;50.060;9.150;2022-10-16T06:53:20;6.90;;;3.40;;
71490;SDS011;59307;50.060;9.150;2022-10-16T06:55:46;5.73;;;3.70;;
71490;SDS011;59307;50.060;9.150;2022-10-16T06:58:11;6.43;;;3.50;;
71490;SDS011;59307;50.060;9.150;2022-10-16T07:00:36;7.23;;;4.40;;
71490;SDS011;59307;50.060;9.150;2022-10-16T07:03:02;8.50;;;4.70;;
71490;SDS011;59307;50.060;9.150;2022-10-16T07:05:27;6.77;;;3.60;;
71490;SDS011;59307;50.060;9.150;2022-10-16T07:07:52;5.17;;;2.70;;
71490;SDS011;59307;50.060;9.150;2022-10-16T07:10:17;6.83;;;2.50;;
71490;SDS011;59307;50.060;9.150;2022-10-16T07:12:42;3.87;;;2.27;;
71490;SDS011;59307;50.060;9.150;2022-10-16T07:15:10;4.63;;;2.28;;
71490;SDS011;59307;50.060;9.150;2022-10-16T07:17:35;4.37;;;2.20;;
71490;SDS011;59307;50.060;9.150;2022-10-16T07:20:00;3.20;;;2.30;;
71490;SDS011;59307;50.060;9.150;2022-10-16T07:22:25;10.07;;;2.83;;
71490;SDS011;59307;50.060;9.150;2022-10-16T07:24:52;5.00;;;2.40;;
71490;SDS011;59307;50.060;9.150;2022-10-16T07:27:18;6.23;;;2.20;;
71490;SDS011;59307;50.060;9.150;2022-10-16T07:29:43;4.33;;;2.13;;
71490;SDS011;59307;50.060;9.150;2022-10-16T07:32:08;5.37;;;2.10;;
71490;SDS011;59307;50.060;9.150;2022-10-16T07:34:33;5.60;;;2.60;;
71490;SDS011;59307;50.060;9.150;2022-10-16T07:36:59;5.00;;;2.30;;
71490;SDS011;59307;50.060;9.150;2022-10-16T07:39:24;6.83;;;2.40;;
71490;SDS011;59307;50.060;9.150;2022-10-16T07:41:49;6.47;;;2.30;;
71490;SDS011;59307;50.060;9.150;2022-10-16T07:44:15;3.83;;;2.33;;
71490;SDS011;59307;50.060;9.150;2022-10-16T07:46:40;3.65;;;2.20;;
71490;SDS011;59307;50.060;9.150;2022-10-16T07:49:05;3.97;;;2.10;;
71490;SDS011;59307;50.060;9.150;2022-10-16T07:51:30;5.47;;;2.10;;
71490;SDS011;59307;50.060;9.150;2022-10-16T07:53:56;4.73;;;2.20;;
71490;SDS011;59307;50.060;9.150;2022-10-16T07:56:21;5.23;;;2.27;;
71490;SDS011;59307;50.060;9.150;2022-10-16T07:58:46;5.47;;;2.20;;
71490;SDS011;59307;50.060;9.150;2022-10-16T08:01:13;5.77;;;2.40;;
71490;SDS011;59307;50.060;9.150;2022-10-16T08:03:41;6.28;;;2.50;;
71490;SDS011;59307;50.060;9.150;2022-10-16T08:06:06;6.00;;;2.47;;
71490;SDS011;59307;50.060;9.150;2022-10-16T08:08:32;7.00;;;2.63;;
71490;SDS011;59307;50.060;9.150;2022-10-16T08:10:57;5.27;;;2.40;;
71490;SDS011;59307;50.060;9.150;2022-10-16T08:13:22;5.07;;;2.37;;
71490;SDS011;59307;50.060;9.150;2022-10-16T08:15:47;6.53;;;2.27;;
71490;SDS011;59307;50.060;9.150;2022-10-16T08:18:13;4.77;;;2.10;;
71490;SDS011;59307;50.060;9.150;2022-10-16T08:20:39;3.80;;;2.28;;
71490;SDS011;59307;50.060;9.150;2022-10-16T08:23:04;6.68;;;2.10;;
71490;SDS011;59307;50.060;9.150;2022-10-16T08:25:30;6.43;;;2.20;;
71490;SDS011;59307;50.060;9.150;2022-10-16T08:27:55;3.80;;;2.10;;
71490;SDS011;59307;50.060;9.150;2022-10-16T08:30:20;2.60;;;1.87;;
71490;SDS011;59307;50.060;9.150;2022-10-16T08:32:46;3.97;;;2.00;;
71490;SDS011;59307;50.060;9.150;2022-10-16T08:35:11;5.30;;;2.10;;
71490;SDS011;59307;50.060;9.150;2022-10-16T08:37:37;5.60;;;2.13;;
71490;SDS011;59307;50.060;9.150;2022-10-16T08:40:02;4.83;;;2.20;;
71490;SDS011;59307;50.060;9.150;2022-10-16T08:42:35;4.80;;;2.00;;
71490;SDS011;59307;50.060;9.150;2022-10-16T08:50:09;4.43;;;2.30;;
71490;SDS011;59307;50.060;9.150;2022-10-16T08:52:35;8.13;;;2.65;;
71490;SDS011;59307;50.060;9.150;2022-10-16T08:55:03;6.88;;;1.95;;
71490;SDS011;59307;50.060;9.150;2022-10-16T08:57:29;13.73;;;3.60;;
71490;SDS011;59307;50.060;9.150;2022-10-16T08:59:57;7.78;;;2.13;;
71490;SDS011;59307;50.060;9.150;2022-10-16T09:02:39;3.05;;;1.70;;
71490;SDS011;59307;50.060;9.150;2022-10-16T09:05:23;5.97;;;2.13;;
71490;SDS011;59307;50.060;9.150;2022-10-16T09:15:22;5.27;;;1.83;;
71490;SDS011;59307;50.060;9.150;2022-10-16T09:17:52;6.70;;;2.20;;
71490;SDS011;59307;50.060;9.150;2022-10-16T09:20:24;3.65;;;2.00;;
71490;SDS011;59307;50.060;9.150;2022-10-16T09:23:34;4.00;;;1.93;;
71490;SDS011;59307;50.060;9.150;2022-10-16T09:25:41;4.47;;;2.10;;
71490;SDS011;59307;50.060;9.150;2022-10-16T09:28:07;4.18;;;2.10;;
71490;SDS011;59307;50.060;9.150;2022-10-16T09:30:33;3.50;;;1.87;;
71490;SDS011;59307;50.060;9.150;2022-10-16T09:32:58;5.13;;;2.08;;
71490;SDS011;59307;50.060;9.150;2022-10-16T09:35:31;3.80;;;2.07;;
71490;SDS011;59307;50.060;9.150;2022-10-16T09:37:57;4.18;;;2.47;;
71490;SDS011;59307;50.060;9.150;2022-10-16T09:40:26;5.67;;;2.20;;
71490;SDS011;59307;50.060;9.150;2022-10-16T09:42:54;3.95;;;2.30;;
71490;SDS011;59307;50.060;9.150;2022-10-16T09:45:22;4.70;;;2.30;;
71490;SDS011;59307;50.060;9.150;2022-10-16T09:47:48;3.87;;;2.53;;
71490;SDS011;59307;50.060;9.150;2022-10-16T09:50:34;6.23;;;2.60;;
71490;SDS011;59307;50.060;9.150;2022-10-16T09:53:03;4.47;;;2.50;;
71490;SDS011;59307;50.060;9.150;2022-10-16T09:55:28;5.05;;;2.67;;
71490;SDS011;59307;50.060;9.150;2022-10-16T09:57:54;5.07;;;2.83;;
71490;SDS011;59307;50.060;9.150;2022-10-16T10:00:20;5.83;;;3.03;;
71490;SDS011;59307;50.060;9.150;2022-10-16T10:02:45;5.37;;;3.03;;
71490;SDS011;59307;50.060;9.150;2022-10-16T10:05:18;5.05;;;3.05;;
71490;SDS011;59307;50.060;9.150;2022-10-16T10:07:44;5.82;;;3.50;;
71490;SDS011;59307;50.060;9.150;2022-10-16T10:10:25;10.23;;;3.70;;
71490;SDS011;59307;50.060;9.150;2022-10-16T10:12:51;6.85;;;3.00;;
71490;SDS011;59307;50.060;9.150;2022-10-16T10:15:17;4.87;;;2.70;;
71490;SDS011;59307;50.060;9.150;2022-10-16T10:17:47;7.07;;;3.08;;
71490;SDS011;59307;50.060;9.150;2022-10-16T10:22:43;8.15;;;3.00;;
71490;SDS011;59307;50.060;9.150;2022-10-16T10:32:35;2.50;;;1.70;;
71490;SDS011;59307;50.060;9.150;2022-10-16T10:38:03;3.30;;;2.00;;
71490;SDS011;59307;50.060;9.150;2022-10-16T10:45:51;3.72;;;1.95;;
71490;SDS011;59307;50.060;9.150;2022-10-16T10:50:49;5.33;;;1.80;;
71490;SDS011;59307;50.060;9.150;2022-10-16T10:53:32;4.78;;;2.00;;
71490;SDS011;59307;50.060;9.150;2022-10-16T11:01:14;4.83;;;1.90;;
71490;SDS011;59307;50.060;9.150;2022-10-16T11:06:25;3.03;;;2.07;;
71490;SDS011;59307;50.060;9.150;2022-10-16T11:09:00;3.35;;;2.05;;
71490;SDS011;59307;50.060;9.150;2022-10-16T11:11:29;5.45;;;2.38;;
71490;SDS011;59307;50.060;9.150;2022-10-16T11:16:38;4.03;;;2.25;;
71490;SDS011;59307;50.060;9.150;2022-10-16T11:19:10;3.47;;;1.97;;
71490;SDS011;59307;50.060;9.150;2022-10-16T11:21:41;4.50;;;1.80;;
71490;SDS011;59307;50.060;9.150;2022-10-16T11:26:39;4.10;;;1.73;;
71490;SDS011;59307;50.060;9.150;2022-10-16T11:29:08;2.55;;;1.45;;
71490;SDS011;59307;50.060;9.150;2022-10-16T11:31:41;3.53;;;1.77;;
71490;SDS011;59307;50.060;9.150;2022-10-16T11:36:43;3.25;;;1.58;;
71490;SDS011;59307;50.060;9.150;2022-10-16T11:39:28;2.45;;;1.98;;
71490;SDS011;59307;50.060;9.150;2022-10-16T11:49:45;3.22;;;1.70;;
71490;SDS011;59307;50.060;9.150;2022-10-16T11:54:52;3.90;;;1.60;;
71490;SDS011;59307;50.060;9.150;2022-10-16T11:58:01;2.67;;;1.65;;
71490;SDS011;59307;50.060;9.150;2022-10-16T12:02:38;4.23;;;1.83;;
71490;SDS011;59307;50.060;9.150;2022-10-16T12:05:20;3.85;;;1.65;;
71490;SDS011;59307;50.060;9.150;2022-10-16T12:07:49;3.60;;;1.63;;
71490;SDS011;59307;50.060;9.150;2022-10-16T12:10:22;4.50;;;1.63;;
71490;SDS011;59307;50.060;9.150;2022-10-16T12:12:47;3.13;;;1.73;;
71490;SDS011;59307;50.060;9.150;2022-10-16T12:15:20;3.07;;;1.50;;
71490;SDS011;59307;50.060;9.150;2022-10-16T12:17:46;3.67;;;1.42;;
71490;SDS011;59307;50.060;9.150;2022-10-16T12:22:37;2.57;;;1.70;;
71490;SDS011;59307;50.060;9.150;2022-10-16T12:25:17;3.47;;;1.30;;
71490;SDS011;59307;50.060;9.150;2022-10-16T12:27:44;3.97;;;1.60;;
71490;SDS011;59307;50.060;9.150;2022-10-16T12:30:15;4.40;;;1.80;;
71490;SDS011;59307;50.060;9.150;2022-10-16T12:32:45;2.03;;;1.35;;
71490;SDS011;59307;50.060;9.150;2022-10-16T12:35:21;3.10;;;1.55;;
71490;SDS011;59307;50.060;9.150;2022-10-16T12:37:47;2.28;;;1.42;;
71490;SDS011;59307;50.060;9.150;2022-10-16T12:40:29;3.27;;;1.80;;
71490;SDS011;59307;50.060;9.150;2022-10-16T12:42:55;2.00;;;1.50;;
71490;SDS011;59307;50.060;9.150;2022-10-16T12:45:25;3.43;;;1.87;;
71490;SDS011;59307;50.060;9.150;2022-10-16T12:47:52;4.15;;;1.77;;
71490;SDS011;59307;50.060;9.150;2022-10-16T12:50:29;2.40;;;1.60;;
71490;SDS011;59307;50.060;9.150;2022-10-16T12:52:58;2.53;;;1.50;;
71490;SDS011;59307;50.060;9.150;2022-10-16T12:55:24;3.50;;;1.48;;
71490;SDS011;59307;50.060;9.150;2022-10-16T13:08:05;3.30;;;1.47;;
71490;SDS011;59307;50.060;9.150;2022-10-16T13:18:16;7.63;;;1.67;;
71490;SDS011;59307;50.060;9.150;2022-10-16T13:23:21;2.27;;;1.60;;
71490;SDS011;59307;50.060;9.150;2022-10-16T13:28:34;3.65;;;1.90;;
71490;SDS011;59307;50.060;9.150;2022-10-16T13:31:00;4.90;;;1.80;;
71490;SDS011;59307;50.060;9.150;2022-10-16T13:35:52;5.63;;;1.63;;
71490;SDS011;59307;50.060;9.150;2022-10-16T13:38:20;3.35;;;1.80;;
71490;SDS011;59307;50.060;9.150;2022-10-16T13:40:49;3.88;;;2.03;;
71490;SDS011;59307;50.060;9.150;2022-10-16T13:43:15;3.88;;;1.85;;
71490;SDS011;59307;50.060;9.150;2022-10-16T13:45:41;4.67;;;1.93;;
71490;SDS011;59307;50.060;9.150;2022-10-16T13:48:08;4.97;;;1.85;;
71490;SDS011;59307;50.060;9.150;2022-10-16T13:50:34;5.45;;;1.98;;
71490;SDS011;59307;50.060;9.150;2022-10-16T13:53:03;3.33;;;1.80;;
71490;SDS011;59307;50.060;9.150;2022-10-16T13:55:28;3.47;;;1.60;;
71490;SDS011;59307;50.060;9.150;2022-10-16T13:57:56;3.07;;;1.70;;
71490;SDS011;59307;50.060;9.150;2022-10-16T14:00:29;3.73;;;1.60;;
71490;SDS011;59307;50.060;9.150;2022-10-16T14:03:02;3.30;;;1.80;;
71490;SDS011;59307;50.060;9.150;2022-10-16T14:05:28;4.10;;;2.00;;
71490;SDS011;59307;50.060;9.150;2022-10-16T14:07:53;7.37;;;2.60;;
71490;SDS011;59307;50.060;9.150;2022-10-16T14:10:23;6.38;;;2.10;;
71490;SDS011;59307;50.060;9.150;2022-10-16T14:13:00;9.03;;;2.60;;
71490;SDS011;59307;50.060;9.150;2022-10-16T14:15:26;5.60;;;2.50;;
71490;SDS011;59307;50.060;9.150;2022-10-16T14:17:51;3.67;;;2.50;;
71490;SDS011;59307;50.060;9.150;2022-10-16T14:20:17;7.00;;;4.10;;
71490;SDS011;59307;50.060;9.150;2022-10-16T14:22:43;7.72;;;3.88;;
71490;SDS011;59307;50.060;9.150;2022-10-16T14:25:30;3.77;;;2.27;;
71490;SDS011;59307;50.060;9.150;2022-10-16T14:30:23;3.78;;;1.70;;
71490;SDS011;59307;50.060;9.150;2022-10-16T14:35:30;2.77;;;1.80;;
71490;SDS011;59307;50.060;9.150;2022-10-16T14:37:56;5.05;;;1.98;;
71490;SDS011;59307;50.060;9.150;2022-10-16T14:40:23;4.75;;;2.53;;
71490;SDS011;59307;50.060;9.150;2022-10-16T14:42:48;4.97;;;2.10;;
71490;SDS011;59307;50.060;9.150;2022-10-16T14:45:15;4.43;;;2.20;;
71490;SDS011;59307;50.060;9.150;2022-10-16T14:47:50;5.38;;;2.20;;
71490;SDS011;59307;50.060;9.150;2022-10-16T14:50:17;5.60;;;2.37;;
71490;SDS011;59307;50.060;9.150;2022-10-16T14:52:42;6.53;;;2.00;;
71490;SDS011;59307;50.060;9.150;2022-10-16T14:55:09;5.05;;;2.20;;
71490;SDS011;59307;50.060;9.150;2022-10-16T14:57:34;5.00;;;2.30;;
71490;SDS011;59307;50.060;9.150;2022-10-16T15:00:01;5.22;;;2.10;;
71490;SDS011;59307;50.060;9.150;2022-10-16T15:04:54;7.72;;;2.20;;
71490;SDS011;59307;50.060;9.150;2022-10-16T15:07:19;4.63;;;2.10;;
71490;SDS011;59307;50.060;9.150;2022-10-16T15:09:45;5.17;;;2.40;;
71490;SDS011;59307;50.060;9.150;2022-10-16T15:12:10;6.50;;;2.07;;
71490;SDS011;59307;50.060;9.150;2022-10-16T15:14:35;8.63;;;2.23;;
71490;SDS011;59307;50.060;9.150;2022-10-16T15:17:00;5.53;;;2.00;;
71490;SDS011;59307;50.060;9.150;2022-10-16T15:19:25;3.67;;;2.13;;
71490;SDS011;59307;50.060;9.150;2022-10-16T15:21:50;2.87;;;1.97;;
71490;SDS011;59307;50.060;9.150;2022-10-16T15:24:17;8.02;;;2.20;;
71490;SDS011;59307;50.060;9.150;2022-10-16T15:26:42;2.57;;;1.67;;
71490;SDS011;59307;50.060;9.150;2022-10-16T15:29:07;4.87;;;2.20;;
71490;SDS011;59307;50.060;9.150;2022-10-16T15:31:33;4.55;;;2.00;;
71490;SDS011;59307;50.060;9.150;2022-10-16T15:33:58;3.30;;;2.10;;
71490;SDS011;59307;50.060;9.150;2022-10-16T15:36:29;6.07;;;2.33;;
71490;SDS011;59307;50.060;9.150;2022-10-16T15:38:55;3.13;;;2.13;;
71490;SDS011;59307;50.060;9.150;2022-10-16T15:41:20;9.90;;;2.00;;
71490;SDS011;59307;50.060;9.150;2022-10-16T15:43:47;3.37;;;1.67;;
71490;SDS011;59307;50.060;9.150;2022-10-16T15:46:17;12.50;;;3.08;;
71490;SDS011;59307;50.060;9.150;2022-10-16T15:48:42;5.22;;;2.20;;
71490;SDS011;59307;50.060;9.150;2022-10-16T15:51:08;3.73;;;2.20;;
71490;SDS011;59307;50.060;9.150;2022-10-16T15:53:33;4.07;;;2.13;;
71490;SDS011;59307;50.060;9.150;2022-10-16T15:56:01;4.47;;;2.27;;
71490;SDS011;59307;50.060;9.150;2022-10-16T15:58:27;5.10;;;2.58;;
71490;SDS011;59307;50.060;9.150;2022-10-16T16:00:56;4.35;;;2.47;;
71490;SDS011;59307;50.060;9.150;2022-10-16T16:03:21;6.65;;;2.40;;
71490;SDS011;59307;50.060;9.150;2022-10-16T16:05:46;6.07;;;2.60;;
71490;SDS011;59307;50.060;9.150;2022-10-16T16:08:12;4.43;;;2.23;;
71490;SDS011;59307;50.060;9.150;2022-10-16T16:10:37;2.70;;;1.90;;
71490;SDS011;59307;50.060;9.150;2022-10-16T16:13:02;4.10;;;2.20;;
71490;SDS011;59307;50.060;9.150;2022-10-16T16:15:27;6.80;;;2.30;;
71490;SDS011;59307;50.060;9.150;2022-10-16T16:17:52;5.50;;;2.10;;
71490;SDS011;59307;50.060;9.150;2022-10-16T16:20:18;5.20;;;2.20;;
71490;SDS011;59307;50.060;9.150;2022-10-16T16:22:43;5.67;;;2.37;;
71490;SDS011;59307;50.060;9.150;2022-10-16T16:25:08;5.30;;;2.30;;
71490;SDS011;59307;50.060;9.150;2022-10-16T16:27:33;7.03;;;2.47;;
71490;SDS011;59307;50.060;9.150;2022-10-16T16:29:59;4.50;;;2.70;;
71490;SDS011;59307;50.060;9.150;2022-10-16T16:32:25;5.00;;;2.58;;
71490;SDS011;59307;50.060;9.150;2022-10-16T16:34:50;6.57;;;2.70;;
71490;SDS011;59307;50.060;9.150;2022-10-16T16:37:15;5.80;;;2.67;;
71490;SDS011;59307;50.060;9.150;2022-10-16T16:39:41;5.03;;;2.70;;
71490;SDS011;59307;50.060;9.150;2022-10-16T16:42:06;4.07;;;2.60;;
71490;SDS011;59307;50.060;9.150;2022-10-16T16:44:32;8.85;;;2.83;;